cgv5 weather

Grand Valley (Black Field)
Ontario, Canada

Public forecast

Using degrees Celsius for public forecast. Weather courtesy of forecast.io.

METAR (pilot weather report)

Closest report is Waterloo Airport, 24.3 nm (45.0 km) S. Retrieved 2019/09/17 09:22 UTC (15 minutes ago):

CYKF 170922Z AUTO 01002KT 1 3/4SM BR CLR 08/08 A3018 RMK VIS VRB 5/8-3 SLP225

TAF (pilot weather forecast)

Closest forecast is Waterloo Airport, 24.3 nm (45.0 km) S. Retrieved 2019/09/17 08:42 UTC (55 minutes ago):

TAF CYKF 170738Z 1708/1720 VRB03KT P6SM SKC TEMPO 1708/1713 3SM BR PROB30 1708/1711 1/2SM FG OVC002 FM171300 03005KT P6SM SKC FM171500 09008KT P6SM FEW050 RMK FCST BASED ON AUTO OBS. NXT FCST BY 171400Z